• Join FlightAware (Why Join?)
  • Login
  • US Flag 
10:53PM EDT


 

Airport Tracker/Info


-or-


 

Live Flight TrackerFlight Track Log ✈ ASQ4209 ✈ 21-May-2013 ✈ KSAT - KIAH

Flight Track Log - Related Links

Times and Time Zones

All times are in EDT time to prevent confusion due to time zone crossing. See the ASQ4209 flight status page for this flight to view local times or setup timezone preferences in your user account.

Time Position Orientation Groundspeed Altitude Reporting Facility
EDT Latitude Longitude Course Direction KTS MPH feet Rate Location/Type
07:45PM 29.5561 -98.4383 77° East 176 203 1,700  Level Houston Center
07:45PM 29.5792 -98.4164 40° Northeast 192 221 2,600 1,800 Climbing Houston Center
07:46PM 29.6033 -98.3811 52° Northeast 223 257 3,900 1,980 Climbing Houston Center
07:47PM 29.5743 -98.2604 69° East  Level FlightAware Approximate
07:47PM 29.6122 -98.2906 84° East 271 312 6,000  Level Houston Center
07:48PM 29.5964 -98.1940 69° East  Level FlightAware Approximate
07:48PM 29.6211 -98.1975 84° East 292 336 8,400  Level Houston Center
07:49PM 29.6117 -98.1252 77° East  Level FlightAware Approximate
07:49PM 29.6306 -98.0925 84° East 309 356 10,300  Level Houston Center
07:50PM 29.6255 -98.0559 77° East  Level FlightAware Approximate
07:50PM 29.6406 -97.9831 84° East 345 397 11,400  Level Houston Center
07:51PM 29.6500 -97.8531 85° East 380 437 12,700 1,020 Climbing Houston Center
07:52PM 29.6436 -97.7333 93° East 399 459 13,600 840 Climbing Houston Center
07:53PM 29.6353 -97.6017 94° East 410 472 14,500 900 Climbing Houston Center
07:54PM 29.6269 -97.4667 94° East 421 484 15,500 960 Climbing Houston Center
07:55PM 29.6197 -97.3281 93° East 431 496 16,500 960 Climbing Houston Center
07:56PM 29.6097 -97.1581 94° East 441 507 17,600 960 Climbing Houston Center
07:57PM 29.6003 -97.0122 94° East 451 519 18,600 660 Climbing Houston Center
07:58PM 29.5914 -96.8642 94° East 457 526 19,000 180 Climbing Houston Center
07:59PM 29.5822 -96.7194 94° East 450 518 19,000 -300 Level Houston Center
08:00PM 29.5717 -96.5767 95° East 450 518 18,500 -1,260 Descending Houston Center
08:01PM 29.5664 -96.4858 94° East 450 518 17,100 -2,040 Descending Houston Center
08:01PM 29.5628 -96.4308 94° East 451 519 16,200 -2,280 Descending Houston Center
08:02PM 29.5550 -96.3503 96° East 443 510 14,800 -2,340 Descending Houston Center
08:02PM 29.5533 -96.2944 92° East 432 497 13,800 -2,400 Descending Houston Center
08:03PM 29.5475 -96.2144 95° East 388 447 12,400 -1,680 Descending Houston Center
08:03PM 29.5483 -96.1719 89° East 393 452 12,100 -420 Descending Houston Center
08:04PM 29.5761 -96.1056 64° Northeast 351 404 12,000 -240 Descending Houston Center
08:04PM 29.6044 -96.0511 59° Northeast 360 414 11,900 -420 Descending Houston Center
08:05PM 29.6281 -96.0036 60° Northeast 369 425 11,600 -900 Descending Houston Center
08:05PM 29.6575 -95.9444 60° Northeast 367 422 11,000 -1,020 Descending Houston Center
08:06PM 29.6781 -95.9042 60° Northeast 364 419 10,600 -780 Descending Houston Center
08:06PM 29.7075 -95.8447 60° Northeast 363 418 10,200 -660 Descending Houston Center
08:07PM 29.7247 -95.8122 59° Northeast 359 413 10,000 -540 Descending Houston Center
08:08PM 29.7556 -95.7517 60° Northeast 341 392 9,700 -720 Descending Houston Center
08:08PM 29.7764 -95.7100 60° Northeast 317 365 9,200 -1,260 Descending Houston Center
08:09PM 29.7992 -95.6644 60° Northeast 320 368 8,400 -1,440 Descending Houston Center
08:09PM 29.8225 -95.6156 61° Northeast 314 361 7,600 -1,500 Descending Houston Center
08:10PM 29.8414 -95.5772 60° Northeast 314 361 6,900 -1,500 Descending Houston Center
08:10PM 29.8653 -95.5311 59° Northeast 306 352 6,100 -900 Descending Houston Center
08:11PM 29.8836 -95.4939 60° Northeast 303 349 6,000 -120 Descending Houston Center
08:11PM 29.8961 -95.4528 71° East 284 327 6,000  Level Houston Center
08:12PM 29.8953 -95.4031 91° East 294 338 6,000  Level Houston Center
08:12PM 29.8956 -95.3564 90° East 284 327 6,000 60 Level Houston Center
08:13PM 29.8969 -95.2936 89° East 285 328 6,100  Climbing Houston Center
08:13PM 29.8956 -95.2647 93° East 285 328 6,000 -120 Descending Houston Center
08:14PM 29.8975 -95.2028 88° East 282 325 6,000 -600 Level Houston Center
08:14PM 29.8978 -95.1731 89° East 272 313 5,400 -1,860 Descending Houston Center
08:15PM 29.8986 -95.1169 89° East 271 312 4,100 -1,920 Descending Houston Center
08:15PM 29.9158 -95.0961 46° Northeast 270 311 3,500 -1,380 Descending Houston Center
08:16PM 29.9653 -95.0889 North 271 312 2,700 -780 Descending Houston Center
08:17PM 30.0011 -95.1392 309° West 260 299 2,100 -540 Descending Houston Center
08:17PM 29.9942 -95.1731 257° West 231 266 2,000 -360 Descending Houston Center